Aérodrome :
LOGIN :

S'inscrire | Disclaimer

   EN    FR    IT 

 










Légende :    VFR   VFR Marginal   IFR   IFR Intensif   IFR Très Intensif
Visi : 
Plafond : 
>= 8 km
>= 3000ft
5 à 8 km
1000 à 3000 ft
1500m à 5 km
500 à 1000 ft
800 à 1500m
200 à 500 ft
< 800m
< 200 ft
Symboles :   Orages  Brouillard  Fortes neiges  Fortes précipitations  Vent > 20 kt
SIGMETs :   Divers  Orages  Givrage  Turbulence  Onde Orograph.  Cendres Volcan.







- Altitude de l'aérodrome : 870 ft
- Code IATA : ETZ
- Voir les cartes d'approche


LFJL - Metz Nancy Lorraine

DERNIER METAR :
  • 240000Z AUTO 19014KT 9999 FEW039 BKN052 OVC074 12/08 Q1012 NOSIG

METARs EXPIRÉS :
  • 232330Z AUTO 19015KT 9999 SCT048 OVC060 12/08 Q1012 TEMPO 21012G22KT
  • 232300Z AUTO 19015KT 9999 BKN044 OVC060 12/08 Q1012 TEMPO 21012G22KT BKN030 FEW040TCU
  • 232230Z AUTO 19015KT 9999 FEW042 OVC060 12/08 Q1012 TEMPO 21012G22KT BKN030 FEW040TCU
  • 232200Z AUTO 20015KT 9999 OVC039 13/08 Q1012 TEMPO 21012G22KT BKN030 FEW040TCU
  • 232130Z AUTO 20014KT 9999 BKN041 OVC058 13/08 Q1012 TEMPO BKN030 FEW040TCU

TAF TAF LFJL
Valide du 24 à 00h jusqu'au 25 à 00h UTC


232300Z 2400/2424 20010KT 9999 BKN035
TEMPO 2400/2417 21012G22KT -RA
BECMG 2417/2420 4000 RA BKN012
Pas de NOTAMs connus pour ce terrain.



MET'MAP, la Météo Aéronautique d'un coup d'oeil ! - Copyright ORBIFLY Décembre 2007 - Disclaimer

ORBIFLY MET'MAP TEAM :

Programmation & Développement : Alexandra Zaïnal
Conception & Développement : Baudouin d'Aumeries
Co-Programmation & Développement : Marc-Olivier Méhu
Soutien technique & logistique : Manuel Goepfert

Contact : metmap@orbifly.com




SOURCES & CREDITS :

   NOAA